sensor_id;sensor_type;location;lat;lon;timestamp;pressure;altitude;pressure_sealevel;temperature;humidity
44044;BME280;29709;52.396;16.796;2022-08-19T00:01:47;101046.66;;;27.04;53.11
44044;BME280;29709;52.396;16.796;2022-08-19T00:04:50;101050.53;;;26.98;53.73
44044;BME280;29709;52.396;16.796;2022-08-19T00:07:55;101046.55;;;26.89;53.87
44044;BME280;29709;52.396;16.796;2022-08-19T00:10:58;101045.36;;;26.85;53.84
44044;BME280;29709;52.396;16.796;2022-08-19T00:14:26;101050.71;;;26.81;54.06
44044;BME280;29709;52.396;16.796;2022-08-19T00:17:30;101041.99;;;26.88;53.80
44044;BME280;29709;52.396;16.796;2022-08-19T00:20:33;101038.04;;;26.84;53.93
44044;BME280;29709;52.396;16.796;2022-08-19T00:23:36;101050.71;;;26.81;53.94
44044;BME280;29709;52.396;16.796;2022-08-19T00:26:39;101032.94;;;26.81;54.43
44044;BME280;29709;52.396;16.796;2022-08-19T00:29:46;101028.14;;;26.81;54.24
44044;BME280;29709;52.396;16.796;2022-08-19T00:32:49;101045.09;;;26.86;53.86
44044;BME280;29709;52.396;16.796;2022-08-19T00:35:54;101038.32;;;26.87;53.86
44044;BME280;29709;52.396;16.796;2022-08-19T00:38:57;101036.33;;;26.83;54.22
44044;BME280;29709;52.396;16.796;2022-08-19T00:42:27;101057.96;;;26.72;54.90
44044;BME280;29709;52.396;16.796;2022-08-19T00:45:30;101047.81;;;26.71;54.44
44044;BME280;29709;52.396;16.796;2022-08-19T00:48:35;101048.65;;;26.71;54.46
44044;BME280;29709;52.396;16.796;2022-08-19T00:51:39;101036.48;;;26.66;54.36
44044;BME280;29709;52.396;16.796;2022-08-19T00:54:43;101033.92;;;26.64;54.83
44044;BME280;29709;52.396;16.796;2022-08-19T00:57:53;101029.41;;;26.63;55.01
44044;BME280;29709;52.396;16.796;2022-08-19T01:00:57;101038.94;;;26.57;54.89
44044;BME280;29709;52.396;16.796;2022-08-19T01:04:01;101034.92;;;26.48;55.78
44044;BME280;29709;52.396;16.796;2022-08-19T01:07:04;101033.27;;;26.52;55.47
44044;BME280;29709;52.396;16.796;2022-08-19T01:10:40;101023.37;;;26.50;55.13
44044;BME280;29709;52.396;16.796;2022-08-19T01:13:45;101021.70;;;26.49;55.45
44044;BME280;29709;52.396;16.796;2022-08-19T01:16:49;101025.88;;;26.46;55.14
44044;BME280;29709;52.396;16.796;2022-08-19T01:19:56;101027.84;;;26.45;55.54
44044;BME280;29709;52.396;16.796;2022-08-19T01:23:01;101025.27;;;26.39;55.49
44044;BME280;29709;52.396;16.796;2022-08-19T01:26:04;101021.86;;;26.37;55.56
44044;BME280;29709;52.396;16.796;2022-08-19T01:29:08;101026.60;;;26.36;56.06
44044;BME280;29709;52.396;16.796;2022-08-19T01:32:39;101028.55;;;26.36;55.61
44044;BME280;29709;52.396;16.796;2022-08-19T01:35:43;101016.45;;;26.35;55.53
44044;BME280;29709;52.396;16.796;2022-08-19T01:38:46;101006.29;;;26.34;55.53
44044;BME280;29709;52.396;16.796;2022-08-19T01:41:48;101007.77;;;26.37;55.55
44044;BME280;29709;52.396;16.796;2022-08-19T01:44:51;101004.96;;;26.37;55.75
44044;BME280;29709;52.396;16.796;2022-08-19T01:47:56;101003.59;;;26.44;54.93
44044;BME280;29709;52.396;16.796;2022-08-19T01:50:59;100995.39;;;26.38;55.58
44044;BME280;29709;52.396;16.796;2022-08-19T01:54:02;100985.53;;;26.40;55.08
44044;BME280;29709;52.396;16.796;2022-08-19T01:57:09;100984.97;;;26.38;55.46
44044;BME280;29709;52.396;16.796;2022-08-19T02:00:42;100978.23;;;26.44;55.28
44044;BME280;29709;52.396;16.796;2022-08-19T02:03:48;100980.77;;;26.46;54.91
44044;BME280;29709;52.396;16.796;2022-08-19T02:06:51;100986.75;;;26.50;54.83
44044;BME280;29709;52.396;16.796;2022-08-19T02:09:54;100974.84;;;26.42;55.38
44044;BME280;29709;52.396;16.796;2022-08-19T02:12:58;100968.66;;;26.45;55.02
44044;BME280;29709;52.396;16.796;2022-08-19T02:16:01;100973.45;;;26.45;54.95
44044;BME280;29709;52.396;16.796;2022-08-19T02:19:04;100963.57;;;26.42;55.26
44044;BME280;29709;52.396;16.796;2022-08-19T02:22:07;100966.11;;;26.44;54.84
44044;BME280;29709;52.396;16.796;2022-08-19T02:25:12;100949.66;;;26.36;55.51
44044;BME280;29709;52.396;16.796;2022-08-19T02:28:15;100946.27;;;26.34;55.64
44044;BME280;29709;52.396;16.796;2022-08-19T02:31:43;100948.81;;;26.35;55.47
44044;BME280;29709;52.396;16.796;2022-08-19T02:34:47;100942.61;;;26.33;55.77
44044;BME280;29709;52.396;16.796;2022-08-19T02:37:50;100940.05;;;26.32;55.53
44044;BME280;29709;52.396;16.796;2022-08-19T02:41:10;100952.19;;;26.32;55.44
44044;BME280;29709;52.396;16.796;2022-08-19T02:44:14;100948.20;;;26.28;55.52
44044;BME280;29709;52.396;16.796;2022-08-19T02:47:18;100947.94;;;26.30;55.90
44044;BME280;29709;52.396;16.796;2022-08-19T02:50:21;100941.00;;;26.37;55.69
44044;BME280;29709;52.396;16.796;2022-08-19T02:53:50;100935.38;;;26.42;55.56
44044;BME280;29709;52.396;16.796;2022-08-19T02:56:54;100941.08;;;26.48;55.41
44044;BME280;29709;52.396;16.796;2022-08-19T02:59:58;100937.41;;;26.47;55.37
44044;BME280;29709;52.396;16.796;2022-08-19T03:03:01;100935.38;;;26.42;55.29
44044;BME280;29709;52.396;16.796;2022-08-19T03:06:12;100930.31;;;26.44;55.30
44044;BME280;29709;52.396;16.796;2022-08-19T03:09:17;100921.02;;;26.44;55.26
44044;BME280;29709;52.396;16.796;2022-08-19T03:12:21;100925.51;;;26.40;55.42
44044;BME280;29709;52.396;16.796;2022-08-19T03:15:24;100922.60;;;26.35;55.38
44044;BME280;29709;52.396;16.796;2022-08-19T03:18:57;100925.09;;;26.26;56.01
44044;BME280;29709;52.396;16.796;2022-08-19T03:22:03;100922.53;;;26.25;55.94
44044;BME280;29709;52.396;16.796;2022-08-19T03:25:07;100922.23;;;26.21;55.83
44044;BME280;29709;52.396;16.796;2022-08-19T03:28:11;100920.80;;;26.18;56.49
44044;BME280;29709;52.396;16.796;2022-08-19T03:31:17;100925.59;;;26.18;56.14
44044;BME280;29709;52.396;16.796;2022-08-19T03:34:27;100912.02;;;26.15;56.35
44044;BME280;29709;52.396;16.796;2022-08-19T03:37:30;100918.84;;;26.19;56.10
44044;BME280;29709;52.396;16.796;2022-08-19T03:40:36;100934.04;;;26.18;56.18
44044;BME280;29709;52.396;16.796;2022-08-19T03:44:05;100934.53;;;26.10;56.20
44044;BME280;29709;52.396;16.796;2022-08-19T03:47:08;100933.38;;;26.06;56.41
44044;BME280;29709;52.396;16.796;2022-08-19T03:50:11;100931.41;;;26.06;56.28
44044;BME280;29709;52.396;16.796;2022-08-19T03:53:13;100930.80;;;26.04;56.44
44044;BME280;29709;52.396;16.796;2022-08-19T03:56:18;100932.77;;;26.04;56.67
44044;BME280;29709;52.396;16.796;2022-08-19T03:59:30;100931.41;;;26.06;56.46
44044;BME280;29709;52.396;16.796;2022-08-19T04:02:33;100929.10;;;26.03;56.63
44044;BME280;29709;52.396;16.796;2022-08-19T04:05:36;100931.89;;;25.98;56.43
44044;BME280;29709;52.396;16.796;2022-08-19T04:09:09;100940.51;;;25.86;57.45
44044;BME280;29709;52.396;16.796;2022-08-19T04:12:13;100935.14;;;25.85;57.24
44044;BME280;29709;52.396;16.796;2022-08-19T04:15:17;100930.30;;;25.80;57.15
44044;BME280;29709;52.396;16.796;2022-08-19T04:18:21;100932.81;;;25.77;57.12
44044;BME280;29709;52.396;16.796;2022-08-19T04:21:25;100923.72;;;25.70;57.88
44044;BME280;29709;52.396;16.796;2022-08-19T04:24:29;100923.11;;;25.68;57.79
44044;BME280;29709;52.396;16.796;2022-08-19T04:27:32;100918.87;;;25.65;57.69
44044;BME280;29709;52.396;16.796;2022-08-19T04:30:46;100920.83;;;25.65;58.02
44044;BME280;29709;52.396;16.796;2022-08-19T04:34:17;100949.55;;;25.67;57.72
44044;BME280;29709;52.396;16.796;2022-08-19T04:37:20;100963.36;;;25.68;58.24
44044;BME280;29709;52.396;16.796;2022-08-19T04:40:29;100957.56;;;25.75;57.50
44044;BME280;29709;52.396;16.796;2022-08-19T04:43:45;100952.78;;;25.75;57.83
44044;BME280;29709;52.396;16.796;2022-08-19T04:46:52;100961.23;;;25.75;57.54
44044;BME280;29709;52.396;16.796;2022-08-19T04:49:55;100958.08;;;25.72;57.86
44044;BME280;29709;52.396;16.796;2022-08-19T04:53:31;100933.52;;;25.67;58.17
44044;BME280;29709;52.396;16.796;2022-08-19T04:56:34;100942.30;;;25.71;58.38
44044;BME280;29709;52.396;16.796;2022-08-19T04:59:38;100941.52;;;25.75;58.03
44044;BME280;29709;52.396;16.796;2022-08-19T05:02:42;100945.77;;;25.78;58.00
44044;BME280;29709;52.396;16.796;2022-08-19T05:05:46;100942.37;;;25.76;58.05
44044;BME280;29709;52.396;16.796;2022-08-19T05:08:51;100938.44;;;25.77;57.89
44044;BME280;29709;52.396;16.796;2022-08-19T05:12:04;100938.37;;;25.72;58.35
44044;BME280;29709;52.396;16.796;2022-08-19T05:15:34;100942.30;;;25.71;58.17
44044;BME280;29709;52.396;16.796;2022-08-19T05:18:39;100936.68;;;25.71;58.43
44044;BME280;29709;52.396;16.796;2022-08-19T05:21:54;100927.95;;;25.72;58.37
44044;BME280;29709;52.396;16.796;2022-08-19T05:25:12;100928.30;;;25.76;58.12
44044;BME280;29709;52.396;16.796;2022-08-19T05:28:16;100920.46;;;25.83;57.87
44044;BME280;29709;52.396;16.796;2022-08-19T05:31:19;100920.53;;;25.88;57.88
44044;BME280;29709;52.396;16.796;2022-08-19T05:34:48;100925.88;;;25.89;58.02
44044;BME280;29709;52.396;16.796;2022-08-19T05:37:51;100927.66;;;25.96;58.03
44044;BME280;29709;52.396;16.796;2022-08-19T05:40:56;100938.76;;;26.12;57.55
44044;BME280;29709;52.396;16.796;2022-08-19T05:44:04;100929.55;;;26.22;57.17
44044;BME280;29709;52.396;16.796;2022-08-19T05:47:13;100925.67;;;26.28;57.25
44044;BME280;29709;52.396;16.796;2022-08-19T05:50:17;100915.93;;;26.41;56.74
44044;BME280;29709;52.396;16.796;2022-08-19T05:53:23;100907.83;;;26.50;56.73
44044;BME280;29709;52.396;16.796;2022-08-19T05:56:26;100897.39;;;26.50;56.54
44044;BME280;29709;52.396;16.796;2022-08-19T05:59:55;100896.05;;;26.58;56.59
44044;BME280;29709;52.396;16.796;2022-08-19T06:02:59;100904.30;;;26.74;56.04
44044;BME280;29709;52.396;16.796;2022-08-19T06:06:07;100924.65;;;26.82;55.75
44044;BME280;29709;52.396;16.796;2022-08-19T06:09:10;100918.79;;;26.93;55.66
44044;BME280;29709;52.396;16.796;2022-08-19T06:12:13;100924.80;;;27.07;55.44
44044;BME280;29709;52.396;16.796;2022-08-19T06:15:16;100918.13;;;27.28;54.91
44044;BME280;29709;52.396;16.796;2022-08-19T06:18:19;100912.48;;;27.28;54.72
44044;BME280;29709;52.396;16.796;2022-08-19T06:21:26;100911.34;;;27.29;54.64
44044;BME280;29709;52.396;16.796;2022-08-19T06:24:29;100917.06;;;27.45;54.12
44044;BME280;29709;52.396;16.796;2022-08-19T06:27:59;100916.50;;;27.43;54.25
44044;BME280;29709;52.396;16.796;2022-08-19T06:31:06;100898.42;;;27.49;54.30
44044;BME280;29709;52.396;16.796;2022-08-19T06:34:09;100904.67;;;27.56;53.86
44044;BME280;29709;52.396;16.796;2022-08-19T06:37:13;100901.84;;;27.56;53.71
44044;BME280;29709;52.396;16.796;2022-08-19T06:40:16;100900.20;;;27.70;53.35
44044;BME280;29709;52.396;16.796;2022-08-19T06:43:19;100900.22;;;27.80;53.22
44044;BME280;29709;52.396;16.796;2022-08-19T06:46:23;100912.66;;;27.89;53.07
44044;BME280;29709;52.396;16.796;2022-08-19T06:49:26;100925.13;;;28.29;52.83
44044;BME280;29709;52.396;16.796;2022-08-19T06:52:34;100930.49;;;28.41;52.04
44044;BME280;29709;52.396;16.796;2022-08-19T06:56:03;100938.13;;;28.40;52.07
44044;BME280;29709;52.396;16.796;2022-08-19T06:59:08;100935.32;;;28.45;51.63
44044;BME280;29709;52.396;16.796;2022-08-19T07:02:12;100938.37;;;28.64;51.47
44044;BME280;29709;52.396;16.796;2022-08-19T07:05:15;100943.44;;;28.83;51.29
44044;BME280;29709;52.396;16.796;2022-08-19T07:08:19;100935.51;;;29.00;50.83
44044;BME280;29709;52.396;16.796;2022-08-19T07:11:22;100939.48;;;28.99;50.26
44044;BME280;29709;52.396;16.796;2022-08-19T07:14:27;100948.81;;;28.99;50.53
44044;BME280;29709;52.396;16.796;2022-08-19T07:17:30;100948.45;;;29.16;50.49
44044;BME280;29709;52.396;16.796;2022-08-19T07:20:33;100949.84;;;29.29;50.39
44044;BME280;29709;52.396;16.796;2022-08-19T07:24:03;100952.82;;;29.58;50.14
44044;BME280;29709;52.396;16.796;2022-08-19T07:27:07;100955.24;;;29.80;49.22
44044;BME280;29709;52.396;16.796;2022-08-19T07:30:13;100964.20;;;29.97;48.89
44044;BME280;29709;52.396;16.796;2022-08-19T07:33:16;100962.46;;;30.01;48.06
44044;BME280;29709;52.396;16.796;2022-08-19T07:36:24;100977.34;;;29.83;48.68
44044;BME280;29709;52.396;16.796;2022-08-19T07:39:29;100987.00;;;29.77;48.72
44044;BME280;29709;52.396;16.796;2022-08-19T07:42:32;100979.39;;;29.72;48.63
44044;BME280;29709;52.396;16.796;2022-08-19T07:45:36;100981.68;;;29.65;48.61
44044;BME280;29709;52.396;16.796;2022-08-19T07:48:41;100970.61;;;29.69;48.84
44044;BME280;29709;52.396;16.796;2022-08-19T07:52:10;100966.20;;;29.97;48.86
44044;BME280;29709;52.396;16.796;2022-08-19T07:55:13;100969.66;;;30.33;48.27
44044;BME280;29709;52.396;16.796;2022-08-19T07:58:19;100961.01;;;30.48;47.23
44044;BME280;29709;52.396;16.796;2022-08-19T08:01:25;100956.77;;;30.45;47.42
44044;BME280;29709;52.396;16.796;2022-08-19T08:07:25;100953.88;;;30.51;46.88
44044;BME280;29709;52.396;16.796;2022-08-19T08:10:40;100969.27;;;30.44;47.02
44044;BME280;29709;52.396;16.796;2022-08-19T08:13:43;100969.17;;;30.55;46.68
44044;BME280;29709;52.396;16.796;2022-08-19T08:16:46;100966.45;;;30.73;46.40
44044;BME280;29709;52.396;16.796;2022-08-19T08:19:50;100958.98;;;30.83;46.37
44044;BME280;29709;52.396;16.796;2022-08-19T08:22:53;100970.65;;;31.05;46.02
44044;BME280;29709;52.396;16.796;2022-08-19T08:26:08;100970.91;;;31.09;45.54
44044;BME280;29709;52.396;16.796;2022-08-19T08:29:36;100970.80;;;31.19;45.60
44044;BME280;29709;52.396;16.796;2022-08-19T08:32:43;100970.32;;;31.36;45.86
44044;BME280;29709;52.396;16.796;2022-08-19T08:35:47;100972.89;;;31.56;45.10
44044;BME280;29709;52.396;16.796;2022-08-19T08:38:50;100975.28;;;31.68;44.60
44044;BME280;29709;52.396;16.796;2022-08-19T08:45:13;100991.02;;;31.84;44.65
44044;BME280;29709;52.396;16.796;2022-08-19T08:48:23;100995.85;;;31.83;43.93
44044;BME280;29709;52.396;16.796;2022-08-19T08:51:37;100999.15;;;32.09;43.60
44044;BME280;29709;52.396;16.796;2022-08-19T08:54:44;100972.73;;;32.09;43.80
44044;BME280;29709;52.396;16.796;2022-08-19T08:57:55;100988.27;;;32.35;43.82
44044;BME280;29709;52.396;16.796;2022-08-19T09:01:00;100980.72;;;32.44;43.15
44044;BME280;29709;52.396;16.796;2022-08-19T09:04:28;100983.14;;;32.51;43.02
44044;BME280;29709;52.396;16.796;2022-08-19T09:10:53;100984.27;;;32.36;43.24
44044;BME280;29709;52.396;16.796;2022-08-19T09:17:16;100975.27;;;32.62;42.84
44044;BME280;29709;52.396;16.796;2022-08-19T09:20:45;100982.73;;;32.44;43.25
44044;BME280;29709;52.396;16.796;2022-08-19T09:23:50;100986.72;;;32.43;42.89
44044;BME280;29709;52.396;16.796;2022-08-19T09:26:53;100985.70;;;32.53;42.60
44044;BME280;29709;52.396;16.796;2022-08-19T09:29:56;100978.09;;;32.48;42.97
44044;BME280;29709;52.396;16.796;2022-08-19T09:33:00;100981.66;;;32.72;43.09
44044;BME280;29709;52.396;16.796;2022-08-19T09:36:08;100972.98;;;32.96;42.03
44044;BME280;29709;52.396;16.796;2022-08-19T09:39:12;100977.30;;;32.94;41.36
44044;BME280;29709;52.396;16.796;2022-08-19T09:42:15;100968.32;;;33.00;41.95
44044;BME280;29709;52.396;16.796;2022-08-19T09:45:20;100969.08;;;33.06;40.46
44044;BME280;29709;52.396;16.796;2022-08-19T09:48:50;100971.48;;;32.85;41.35
44044;BME280;29709;52.396;16.796;2022-08-19T09:51:54;100964.84;;;32.90;41.60
44044;BME280;29709;52.396;16.796;2022-08-19T09:54:59;100975.58;;;32.93;40.83
44044;BME280;29709;52.396;16.796;2022-08-19T09:58:02;100974.66;;;32.97;40.61
44044;BME280;29709;52.396;16.796;2022-08-19T10:01:06;100977.58;;;32.92;40.91
44044;BME280;29709;52.396;16.796;2022-08-19T10:04:10;100975.06;;;32.91;40.85
44044;BME280;29709;52.396;16.796;2022-08-19T10:07:13;100974.34;;;32.99;41.35
44044;BME280;29709;52.396;16.796;2022-08-19T10:10:17;100971.29;;;33.23;40.39
44044;BME280;29709;52.396;16.796;2022-08-19T10:13:25;100968.04;;;33.43;39.02
44044;BME280;29709;52.396;16.796;2022-08-19T10:16:54;100963.31;;;33.39;39.54
44044;BME280;29709;52.396;16.796;2022-08-19T10:19:59;100957.81;;;33.42;39.65
44044;BME280;29709;52.396;16.796;2022-08-19T10:23:03;100940.49;;;33.52;39.46
44044;BME280;29709;52.396;16.796;2022-08-19T10:26:07;100936.47;;;33.67;39.01
44044;BME280;29709;52.396;16.796;2022-08-19T10:29:10;100933.17;;;33.88;38.26
44044;BME280;29709;52.396;16.796;2022-08-19T10:32:14;100930.85;;;34.12;38.56
44044;BME280;29709;52.396;16.796;2022-08-19T10:35:17;100944.09;;;34.30;38.20
44044;BME280;29709;52.396;16.796;2022-08-19T10:38:20;100934.04;;;34.10;38.21
44044;BME280;29709;52.396;16.796;2022-08-19T10:41:26;100926.91;;;34.22;38.36
44044;BME280;29709;52.396;16.796;2022-08-19T10:44:55;100934.88;;;34.33;37.81
44044;BME280;29709;52.396;16.796;2022-08-19T10:47:58;100938.83;;;34.24;38.50
44044;BME280;29709;52.396;16.796;2022-08-19T10:51:01;100942.37;;;34.43;38.31
44044;BME280;29709;52.396;16.796;2022-08-19T10:54:17;100946.81;;;34.58;37.63
44044;BME280;29709;52.396;16.796;2022-08-19T10:57:21;100950.78;;;34.70;37.57
44044;BME280;29709;52.396;16.796;2022-08-19T11:00:31;100942.72;;;34.72;36.78
44044;BME280;29709;52.396;16.796;2022-08-19T11:03:34;100938.30;;;34.66;36.21
44044;BME280;29709;52.396;16.796;2022-08-19T11:07:04;100947.71;;;34.67;36.89
44044;BME280;29709;52.396;16.796;2022-08-19T11:10:10;100944.58;;;34.77;36.84
44044;BME280;29709;52.396;16.796;2022-08-19T11:13:14;100957.66;;;35.00;36.22
44044;BME280;29709;52.396;16.796;2022-08-19T11:16:21;100948.45;;;35.04;36.06
44044;BME280;29709;52.396;16.796;2022-08-19T11:19:25;100940.00;;;34.98;35.77
44044;BME280;29709;52.396;16.796;2022-08-19T11:22:28;100925.94;;;35.02;35.33
44044;BME280;29709;52.396;16.796;2022-08-19T11:25:31;100927.83;;;35.15;35.82
44044;BME280;29709;52.396;16.796;2022-08-19T11:28:36;100942.48;;;35.31;34.86
44044;BME280;29709;52.396;16.796;2022-08-19T11:31:43;100947.95;;;35.10;34.84
44044;BME280;29709;52.396;16.796;2022-08-19T11:35:11;100951.73;;;35.28;35.46
44044;BME280;29709;52.396;16.796;2022-08-19T11:38:14;100947.59;;;35.43;34.18
44044;BME280;29709;52.396;16.796;2022-08-19T11:41:19;100951.65;;;35.50;34.31
44044;BME280;29709;52.396;16.796;2022-08-19T11:44:22;100956.84;;;35.40;34.45
44044;BME280;29709;52.396;16.796;2022-08-19T11:47:25;100967.29;;;35.53;34.33
44044;BME280;29709;52.396;16.796;2022-08-19T11:50:29;100961.84;;;35.34;33.92
44044;BME280;29709;52.396;16.796;2022-08-19T11:53:32;100959.54;;;35.05;34.43
44044;BME280;29709;52.396;16.796;2022-08-19T11:56:37;100959.32;;;34.93;35.13
44044;BME280;29709;52.396;16.796;2022-08-19T11:59:41;100960.59;;;35.18;34.71
44044;BME280;29709;52.396;16.796;2022-08-19T12:03:12;100966.52;;;35.30;34.76
44044;BME280;29709;52.396;16.796;2022-08-19T12:06:22;100964.74;;;35.43;33.94
44044;BME280;29709;52.396;16.796;2022-08-19T12:09:30;100971.13;;;35.40;34.22
44044;BME280;29709;52.396;16.796;2022-08-19T12:12:36;100980.68;;;35.35;34.41
44044;BME280;29709;52.396;16.796;2022-08-19T12:15:47;100970.16;;;35.53;34.80
44044;BME280;29709;52.396;16.796;2022-08-19T12:18:51;100970.16;;;35.53;34.96
44044;BME280;29709;52.396;16.796;2022-08-19T12:21:59;100967.00;;;35.72;35.28
44044;BME280;29709;52.396;16.796;2022-08-19T12:25:31;100977.79;;;35.75;35.23
44044;BME280;29709;52.396;16.796;2022-08-19T12:28:35;100984.45;;;35.53;35.51
44044;BME280;29709;52.396;16.796;2022-08-19T12:31:39;100984.95;;;35.46;35.52
44044;BME280;29709;52.396;16.796;2022-08-19T12:34:42;100981.71;;;35.39;35.72
44044;BME280;29709;52.396;16.796;2022-08-19T12:37:47;100988.99;;;35.14;36.80
44044;BME280;29709;52.396;16.796;2022-08-19T12:40:50;100991.34;;;35.12;35.79
44044;BME280;29709;52.396;16.796;2022-08-19T12:43:54;100989.80;;;34.84;36.58
44044;BME280;29709;52.396;16.796;2022-08-19T12:46:58;100995.09;;;34.46;36.78
44044;BME280;29709;52.396;16.796;2022-08-19T12:50:02;100991.67;;;34.21;36.96
44044;BME280;29709;52.396;16.796;2022-08-19T12:53:36;101001.43;;;34.06;37.90
44044;BME280;29709;52.396;16.796;2022-08-19T12:56:40;101000.49;;;33.97;37.38
44044;BME280;29709;52.396;16.796;2022-08-19T12:59:45;100996.41;;;33.90;38.10
44044;BME280;29709;52.396;16.796;2022-08-19T13:02:50;100989.62;;;33.85;37.78
44044;BME280;29709;52.396;16.796;2022-08-19T13:05:54;100998.43;;;33.89;38.42
44044;BME280;29709;52.396;16.796;2022-08-19T13:08:57;100993.66;;;33.98;38.48
44044;BME280;29709;52.396;16.796;2022-08-19T13:12:01;100995.61;;;34.11;37.50
44044;BME280;29709;52.396;16.796;2022-08-19T13:15:10;100994.52;;;34.21;37.27
44044;BME280;29709;52.396;16.796;2022-08-19T13:18:41;100991.84;;;34.02;37.36
44044;BME280;29709;52.396;16.796;2022-08-19T13:21:44;101001.04;;;33.99;37.95
44044;BME280;29709;52.396;16.796;2022-08-19T13:24:47;100989.75;;;33.94;37.53
44044;BME280;29709;52.396;16.796;2022-08-19T13:27:51;100994.48;;;33.85;37.83
44044;BME280;29709;52.396;16.796;2022-08-19T13:30:54;100996.63;;;33.79;38.27
44044;BME280;29709;52.396;16.796;2022-08-19T13:34:09;100992.28;;;33.82;38.15
44044;BME280;29709;52.396;16.796;2022-08-19T13:37:13;100992.28;;;33.82;38.08
44044;BME280;29709;52.396;16.796;2022-08-19T13:40:19;101003.48;;;33.78;38.44
44044;BME280;29709;52.396;16.796;2022-08-19T13:43:51;100987.74;;;33.81;38.25
44044;BME280;29709;52.396;16.796;2022-08-19T13:46:55;100991.23;;;33.92;37.57
44044;BME280;29709;52.396;16.796;2022-08-19T13:53:14;100992.52;;;34.22;37.89
44044;BME280;29709;52.396;16.796;2022-08-19T13:56:19;100994.28;;;34.31;36.90
44044;BME280;29709;52.396;16.796;2022-08-19T13:59:22;100997.76;;;34.28;37.22
44044;BME280;29709;52.396;16.796;2022-08-19T14:02:26;101002.95;;;34.26;37.76
44044;BME280;29709;52.396;16.796;2022-08-19T14:05:30;101004.20;;;34.34;37.31
44044;BME280;29709;52.396;16.796;2022-08-19T14:08:59;101010.55;;;34.31;37.27
44044;BME280;29709;52.396;16.796;2022-08-19T14:12:05;101012.35;;;34.27;37.47
44044;BME280;29709;52.396;16.796;2022-08-19T14:15:10;101017.37;;;34.07;37.45
44044;BME280;29709;52.396;16.796;2022-08-19T14:18:22;101015.06;;;34.09;38.31
44044;BME280;29709;52.396;16.796;2022-08-19T14:21:27;101006.75;;;33.99;38.44
44044;BME280;29709;52.396;16.796;2022-08-19T14:24:32;101015.11;;;33.68;38.58
44044;BME280;29709;52.396;16.796;2022-08-19T14:27:39;101017.12;;;33.54;39.21
44044;BME280;29709;52.396;16.796;2022-08-19T14:31:12;101015.55;;;33.48;38.99
44044;BME280;29709;52.396;16.796;2022-08-19T14:34:21;101023.65;;;33.54;38.46
44044;BME280;29709;52.396;16.796;2022-08-19T14:37:24;101016.60;;;33.38;39.19
44044;BME280;29709;52.396;16.796;2022-08-19T14:40:34;101015.70;;;33.24;39.17
44044;BME280;29709;52.396;16.796;2022-08-19T14:43:38;101022.88;;;33.21;39.13
44044;BME280;29709;52.396;16.796;2022-08-19T14:46:42;101020.95;;;33.03;39.56
44044;BME280;29709;52.396;16.796;2022-08-19T14:49:49;101024.75;;;32.98;39.53
44044;BME280;29709;52.396;16.796;2022-08-19T14:53:17;101025.38;;;32.95;39.68
44044;BME280;29709;52.396;16.796;2022-08-19T14:56:23;101021.27;;;33.01;39.29
44044;BME280;29709;52.396;16.796;2022-08-19T14:59:26;101018.29;;;32.93;39.46
44044;BME280;29709;52.396;16.796;2022-08-19T15:02:32;101017.03;;;32.85;39.30
44044;BME280;29709;52.396;16.796;2022-08-19T15:05:36;101017.88;;;32.86;39.73
44044;BME280;29709;52.396;16.796;2022-08-19T15:08:40;101010.12;;;32.72;39.52
44044;BME280;29709;52.396;16.796;2022-08-19T15:11:47;101017.36;;;32.65;40.04
44044;BME280;29709;52.396;16.796;2022-08-19T15:14:52;101025.29;;;32.49;40.06
44044;BME280;29709;52.396;16.796;2022-08-19T15:18:23;101022.72;;;32.34;40.33
44044;BME280;29709;52.396;16.796;2022-08-19T15:21:28;101017.88;;;32.34;40.67
44044;BME280;29709;52.396;16.796;2022-08-19T15:24:31;101020.08;;;32.37;40.02
44044;BME280;29709;52.396;16.796;2022-08-19T15:27:38;101012.49;;;32.33;40.27
44044;BME280;29709;52.396;16.796;2022-08-19T15:30:42;101006.55;;;32.29;40.69
44044;BME280;29709;52.396;16.796;2022-08-19T15:33:46;101004.94;;;32.23;40.67
44044;BME280;29709;52.396;16.796;2022-08-19T15:36:54;101013.46;;;32.23;40.87
44044;BME280;29709;52.396;16.796;2022-08-19T15:40:00;101009.25;;;32.21;40.89
44044;BME280;29709;52.396;16.796;2022-08-19T15:43:29;101001.78;;;32.06;41.14
44044;BME280;29709;52.396;16.796;2022-08-19T15:46:34;101005.30;;;31.98;41.57
44044;BME280;29709;52.396;16.796;2022-08-19T15:49:37;101006.46;;;31.97;41.37
44044;BME280;29709;52.396;16.796;2022-08-19T15:52:49;101004.61;;;31.87;41.36
44044;BME280;29709;52.396;16.796;2022-08-19T15:55:53;100996.16;;;31.82;41.97
44044;BME280;29709;52.396;16.796;2022-08-19T15:58:59;101001.05;;;31.76;42.13
44044;BME280;29709;52.396;16.796;2022-08-19T16:02:15;101001.42;;;31.70;41.77
44044;BME280;29709;52.396;16.796;2022-08-19T16:05:31;101003.42;;;31.69;42.49
44044;BME280;29709;52.396;16.796;2022-08-19T16:08:46;101000.86;;;31.68;42.42
44044;BME280;29709;52.396;16.796;2022-08-19T16:11:51;101000.99;;;31.57;42.43
44044;BME280;29709;52.396;16.796;2022-08-19T16:15:24;101003.42;;;31.45;42.66
44044;BME280;29709;52.396;16.796;2022-08-19T16:18:32;101010.57;;;31.43;42.74
44044;BME280;29709;52.396;16.796;2022-08-19T16:21:42;101000.05;;;31.43;42.68
44044;BME280;29709;52.396;16.796;2022-08-19T16:24:46;101012.26;;;31.44;43.05
44044;BME280;29709;52.396;16.796;2022-08-19T16:27:49;101011.18;;;31.40;43.33